Time;durP1;ratioP1;P1;durP2;ratioP2;P2;SDS_P1;SDS_P2;PMS_P1;PMS_P2;Temp;Humidity;BMP_temperature;BMP_pressure;BME280_temperature;BME280_humidity;BME280_pressure;Samples;Min_cycle;Max_cycle;Signal;HPM_P1;HPM_P2
2021/12/15 00:00:11;;;;;;;20.38;9.06;;;1.90;99.90;;;1.61;95.34;98819.03;171792;28;1370;-75
2021/12/15 00:00:20;;;;;;;23.00;9.38;;;1.90;99.90;;;1.56;95.57;98809.66;171892;28;1233;-76
2021/12/15 00:00:26;;;;;;;22.62;8.83;;;1.90;99.90;;;1.51;95.14;98795.84;170593;29;1020;-76
2021/12/15 00:00:36;;;;;;;21.10;8.43;;;1.90;99.90;;;1.59;95.11;98818.31;171826;28;969;-76
2021/12/15 00:00:42;;;;;;;20.40;8.50;;;1.90;99.90;;;1.54;95.51;98800.97;171794;28;1409;-76
2021/12/15 00:00:48;;;;;;;19.98;8.52;;;1.90;99.90;;;1.49;95.46;98798.63;172603;28;1860;-76
2021/12/15 00:00:54;;;;;;;20.65;8.80;;;1.90;99.90;;;1.53;95.27;98799.28;173231;28;892;-76
2021/12/15 00:01:03;;;;;;;20.95;9.00;;;1.90;99.90;;;1.60;94.82;98816.50;172395;28;1315;-76
2021/12/15 00:01:09;;;;;;;21.72;8.90;;;1.90;99.90;;;1.44;94.84;98790.13;172558;28;965;-75
2021/12/15 00:01:15;;;;;;;21.56;8.98;;;1.90;99.90;;;1.56;95.32;98807.03;172448;28;1626;-76
2021/12/15 00:01:21;;;;;;;21.17;8.83;;;1.90;99.90;;;1.57;95.08;98816.69;171797;28;1396;-76
2021/12/15 00:01:29;;;;;;;20.92;8.98;;;1.90;99.90;;;1.55;95.58;98800.88;172424;28;1452;-76
2021/12/15 00:01:36;;;;;;;21.40;9.37;;;1.90;99.90;;;1.52;95.05;98797.56;173269;28;816;-76
2021/12/15 00:01:42;;;;;;;20.07;9.10;;;1.90;99.90;;;1.50;95.23;98800.31;172501;28;1373;-76
2021/12/15 00:01:54;;;;;;;25.76;9.62;;;1.90;99.90;;;1.54;95.28;98806.28;171262;28;1828;-75
2021/12/15 00:02:02;;;;;;;27.57;9.92;;;1.90;99.90;;;1.56;94.68;98813.19;173226;28;1245;-75
2021/12/15 00:02:12;;;;;;;27.07;9.67;;;1.90;99.90;;;1.51;95.28;98799.34;173275;28;906;-75
2021/12/15 00:02:20;;;;;;;25.34;9.77;;;1.90;99.90;;;1.46;95.30;98795.28;173221;28;1111;-76
2021/12/15 00:02:28;;;;;;;24.27;9.43;;;1.90;99.90;;;1.53;95.06;98807.22;171764;28;1441;-76
2021/12/15 00:02:34;;;;;;;24.36;9.58;;;1.90;99.90;;;1.20;94.84;98755.38;172501;28;1050;-76
2021/12/15 00:02:42;;;;;;;23.45;9.35;;;1.90;99.90;;;1.51;95.15;98807.31;172496;28;931;-76
2021/12/15 00:02:51;;;;;;;25.00;9.28;;;1.90;99.90;;;1.42;95.22;98794.66;171746;28;1788;-76
2021/12/15 00:02:57;;;;;;;24.11;9.09;;;1.90;99.90;;;1.47;95.19;98802.31;170441;29;1387;-76
2021/12/15 00:03:06;;;;;;;23.00;9.12;;;1.90;99.90;;;1.50;94.87;98812.75;172434;28;1446;-76
2021/12/15 00:03:15;;;;;;;21.55;9.15;;;1.80;99.90;;;1.49;95.36;98805.72;171895;28;891;-76
2021/12/15 00:03:21;;;;;;;21.03;9.33;;;1.80;99.90;;;1.54;94.97;98812.44;171223;28;1699;-76
2021/12/15 00:03:27;;;;;;;20.38;9.65;;;1.90;99.90;;;1.44;95.50;98795.41;172548;28;918;-76
2021/12/15 00:03:36;;;;;;;21.23;9.48;;;1.80;99.90;;;1.37;95.06;98794.09;173249;28;859;-76
2021/12/15 00:03:42;;;;;;;21.90;9.53;;;1.80;99.90;;;1.50;95.58;98808.25;173238;28;928;-75
2021/12/15 00:03:48;;;;;;;22.70;9.33;;;1.80;99.90;;;1.46;95.50;98805.91;171369;28;1642;-75
2021/12/15 00:03:55;;;;;;;22.10;9.13;;;1.80;99.90;;;1.41;95.55;98795.59;172515;28;1281;-75
2021/12/15 00:04:03;;;;;;;22.12;9.24;;;1.80;99.90;;;1.44;95.77;98800.72;171886;28;880;-75
2021/12/15 00:04:10;;;;;;;22.50;9.80;;;1.80;99.90;;;1.46;95.60;98804.09;171168;28;1298;-75
2021/12/15 00:04:16;;;;;;;23.82;9.75;;;1.80;99.90;;;1.38;95.32;98795.81;172591;28;1139;-76
2021/12/15 00:04:22;;;;;;;23.80;9.73;;;1.80;99.90;;;1.39;95.81;98792.22;172521;28;930;-76
2021/12/15 00:04:28;;;;;;;25.33;9.70;;;1.80;99.90;;;1.45;95.58;98810.38;171802;28;1299;-76
2021/12/15 00:04:34;;;;;;;25.80;9.40;;;1.80;99.90;;;1.44;95.72;98800.72;170610;28;1604;-76
2021/12/15 00:04:42;;;;;;;25.70;9.18;;;1.80;99.90;;;1.49;95.39;98814.53;171616;28;2090;-76
2021/12/15 00:04:52;;;;;;;23.58;8.98;;;1.80;99.90;;;1.33;95.28;98783.78;171944;28;2150;-76
2021/12/15 00:04:58;;;;;;;24.30;9.39;;;1.80;99.90;;;1.24;95.96;98775.44;171209;28;1351;-76
2021/12/15 00:05:06;;;;;;;24.05;9.63;;;1.80;99.90;;;1.42;95.90;98802.59;172476;28;867;-76
2021/12/15 00:05:21;;;;;;;22.72;9.54;;;1.80;99.90;;;1.45;95.68;98806.88;172936;28;1694;-77
2021/12/15 00:05:28;;;;;;;24.54;9.56;;;1.80;99.90;;;1.31;95.56;98783.00;171801;28;1362;-76
2021/12/15 00:05:34;;;;;;;22.63;8.97;;;1.80;99.90;;;1.35;95.78;98790.66;173108;28;1361;-76
2021/12/15 00:05:41;;;;;;;24.80;8.87;;;1.80;99.90;;;1.43;95.46;98809.63;173176;28;934;-76
2021/12/15 00:05:49;;;;;;;22.43;8.87;;;1.80;99.90;;;1.47;95.98;98816.44;172474;28;1683;-75
2021/12/15 00:05:55;;;;;;;24.14;8.97;;;1.80;99.90;;;1.35;95.79;98800.47;171066;28;1389;-76
2021/12/15 00:06:10;;;;;;;24.98;8.88;;;1.80;99.90;;;1.43;95.90;98814.06;173109;28;1302;-76
2021/12/15 00:06:18;;;;;;;26.01;9.17;;;1.80;99.90;;;1.30;95.51;98792.78;171629;28;1749;-76
2021/12/15 00:06:24;;;;;;;26.80;9.40;;;1.80;99.90;;;1.48;95.79;98817.28;171835;28;1005;-76
2021/12/15 00:06:31;;;;;;;25.63;9.53;;;1.80;99.90;;;1.39;95.62;98802.81;171085;28;1287;-76
2021/12/15 00:06:38;;;;;;;27.50;9.67;;;1.80;99.90;;;1.34;95.64;98804.91;171872;28;1295;-75
2021/12/15 00:06:44;;;;;;;26.83;9.57;;;1.80;99.90;;;1.34;96.24;98802.25;172565;28;816;-75
2021/12/15 00:06:50;;;;;;;24.40;9.43;;;1.80;99.90;;;1.35;96.02;98798.63;172969;28;1705;-75
2021/12/15 00:06:56;;;;;;;25.70;9.68;;;1.80;99.90;;;1.38;95.74;98809.06;173020;28;1296;-76
2021/12/15 00:07:02;;;;;;;25.02;9.63;;;1.70;99.90;;;1.44;95.74;98819.28;172517;28;1887;-76
2021/12/15 00:07:09;;;;;;;23.75;9.88;;;1.70;99.90;;;1.25;95.68;98789.56;172811;28;1743;-76
2021/12/15 00:07:15;;;;;;;23.86;9.88;;;1.70;99.90;;;1.45;95.79;98826.28;172533;28;1070;-76
2021/12/15 00:07:27;;;;;;;27.02;9.88;;;1.70;99.90;;;1.39;95.84;98804.63;171868;28;915;-76
2021/12/15 00:07:33;;;;;;;28.04;10.18;;;1.70;99.90;;;1.42;96.45;98809.72;171804;28;1236;-76
2021/12/15 00:07:39;;;;;;;26.10;10.23;;;1.80;99.90;;;1.38;96.32;98809.06;171791;28;1456;-76
2021/12/15 00:07:46;;;;;;;26.25;10.60;;;1.70;99.90;;;1.26;95.93;98791.28;171100;28;1547;-76
2021/12/15 00:08:11;;;;;;;21.87;10.37;;;1.70;99.90;;;1.42;96.52;98821.19;171120;28;1421;-76
2021/12/15 00:08:17;;;;;;;22.88;9.96;;;1.70;99.90;;;1.37;96.35;98810.00;171756;28;1459;-76
2021/12/15 00:08:23;;;;;;;25.03;9.50;;;1.70;99.90;;;1.33;96.39;98807.66;171769;28;1413;-76
2021/12/15 00:08:30;;;;;;;24.47;9.43;;;1.70;99.90;;;1.42;96.45;98815.88;171217;28;868;-76
2021/12/15 00:08:37;;;;;;;22.63;9.30;;;1.70;99.90;;;1.42;96.27;98818.53;171778;28;1355;-76
2021/12/15 00:08:48;;;;;;;21.76;9.42;;;1.70;99.90;;;1.39;96.19;98816.09;172506;28;1086;-76
2021/12/15 00:08:59;;;;;;;20.85;9.52;;;1.70;99.90;;;1.35;96.33;98803.94;172552;28;1352;-75
2021/12/15 00:09:12;;;;;;;21.60;10.07;;;1.70;99.90;;;1.40;96.79;98819.59;171751;28;983;-75
2021/12/15 00:09:18;;;;;;;22.42;10.09;;;1.70;99.90;;;1.38;96.79;98811.72;170985;28;1405;-76
2021/12/15 00:09:25;;;;;;;21.47;9.77;;;1.70;99.90;;;1.44;96.65;98815.78;171811;28;1349;-76
2021/12/15 00:09:32;;;;;;;21.73;9.93;;;1.70;99.90;;;1.41;96.51;98814.16;171813;28;1394;-75
2021/12/15 00:09:38;;;;;;;21.25;9.40;;;1.70;99.90;;;1.35;96.87;98800.47;173095;28;1460;-75
2021/12/15 00:09:44;;;;;;;20.13;9.60;;;1.70;99.90;;;1.36;96.81;98810.09;173159;28;1326;-75
2021/12/15 00:09:50;;;;;;;20.43;9.60;;;1.70;99.90;;;1.33;96.91;98797.03;173498;28;1633;-75
2021/12/15 00:09:56;;;;;;;20.90;9.73;;;1.70;99.90;;;1.36;97.06;98808.31;173282;28;1390;-75
2021/12/15 00:10:06;;;;;;;22.40;9.70;;;1.70;99.90;;;1.33;96.64;98797.91;171751;28;1365;-75
2021/12/15 00:10:12;;;;;;;22.67;9.59;;;1.70;99.90;;;1.35;96.91;98809.25;172491;28;1310;-76
2021/12/15 00:10:21;;;;;;;23.38;9.52;;;1.70;99.90;;;1.14;96.59;98769.03;173257;28;931;-76
2021/12/15 00:10:28;;;;;;;22.80;9.20;;;1.70;99.90;;;1.31;96.71;98799.78;171885;28;1054;-76
2021/12/15 00:10:35;;;;;;;22.80;9.43;;;1.70;99.90;;;1.36;97.17;98804.78;172375;28;1382;-75
2021/12/15 00:10:44;;;;;;;22.77;9.68;;;1.70;99.90;;;1.34;96.72;98804.91;171135;28;955;-75
2021/12/15 00:10:50;;;;;;;23.06;10.15;;;1.70;99.90;;;1.10;97.06;98764.00;172828;28;1740;-76
2021/12/15 00:10:56;;;;;;;23.73;10.57;;;1.70;99.90;;;1.40;96.89;98819.59;172531;28;1117;-75
2021/12/15 00:11:02;;;;;;;22.77;10.30;;;1.70;99.90;;;1.38;97.10;98814.38;172482;28;1312;-75
2021/12/15 00:11:09;;;;;;;23.02;10.05;;;1.70;99.90;;;1.28;96.85;98794.69;171902;28;952;-75
2021/12/15 00:11:16;;;;;;;22.00;9.87;;;1.70;99.90;;;1.34;96.98;98796.97;171212;28;1440;-75
2021/12/15 00:11:32;;;;;;;24.03;9.57;;;1.70;99.90;;;1.42;97.30;98813.22;173250;28;856;-75
2021/12/15 00:11:39;;;;;;;25.05;9.52;;;1.70;99.90;;;1.33;97.13;98794.38;172557;28;1232;-76
2021/12/15 00:11:46;;;;;;;25.77;9.87;;;1.70;99.90;;;1.32;97.11;98797.97;171573;28;2192;-76
2021/12/15 00:11:52;;;;;;;23.02;9.60;;;1.70;99.90;;;1.43;97.32;98817.59;172921;28;1796;-75
2021/12/15 00:11:58;;;;;;;21.73;9.63;;;1.70;99.90;;;1.34;96.89;98802.25;170490;29;888;-75
2021/12/15 00:12:05;;;;;;;20.50;9.33;;;1.70;99.90;;;1.34;97.34;98804.91;172536;28;1479;-75
2021/12/15 00:12:13;;;;;;;19.77;9.12;;;1.70;99.90;;;1.39;97.14;98813.44;173163;28;1133;-75
2021/12/15 00:12:21;;;;;;;18.70;9.13;;;1.70;99.90;;;1.39;96.83;98813.44;173181;28;937;-75
2021/12/15 00:12:27;;;;;;;18.73;9.23;;;1.70;99.90;;;1.36;97.02;98800.34;171191;28;1419;-75
2021/12/15 00:12:33;;;;;;;19.17;9.27;;;1.70;99.90;;;1.37;96.88;98804.72;171828;28;952;-76
2021/12/15 00:12:39;;;;;;;19.50;9.30;;;1.70;99.90;;;1.42;97.51;98813.22;173763;28;1246;-76
2021/12/15 00:12:45;;;;;;;19.78;9.24;;;1.70;99.90;;;1.44;97.32;98810.47;171867;28;983;-76
2021/12/15 00:12:52;;;;;;;20.40;9.33;;;1.70;99.90;;;1.41;97.37;98810.66;171896;28;1014;-76
2021/12/15 00:12:58;;;;;;;21.60;9.55;;;1.70;99.90;;;1.30;96.67;98786.63;173107;28;1345;-76
2021/12/15 00:13:05;;;;;;;24.63;9.87;;;1.70;99.90;;;1.44;96.66;98816.66;173202;28;1111;-75
2021/12/15 00:13:13;;;;;;;24.40;10.00;;;1.70;99.90;;;1.25;96.65;98778.94;172136;28;1415;-75
2021/12/15 00:13:22;;;;;;;24.07;10.08;;;1.70;99.90;;;1.38;96.66;98805.56;172593;28;984;-75
2021/12/15 00:13:28;;;;;;;24.11;9.83;;;1.70;99.90;;;1.39;96.89;98808.13;171510;28;1331;-75
2021/12/15 00:13:37;;;;;;;21.90;9.65;;;1.70;99.90;;;1.43;97.12;98812.28;173204;28;1292;-75
2021/12/15 00:13:45;;;;;;;23.35;9.63;;;1.70;99.90;;;1.37;96.42;98803.84;171829;28;982;-75
2021/12/15 00:13:54;;;;;;;23.70;9.83;;;1.70;99.90;;;1.41;96.63;98806.22;172466;28;1698;-75
2021/12/15 00:14:04;;;;;;;24.40;9.63;;;1.70;99.90;;;1.42;96.67;98813.22;172408;28;1665;-76
2021/12/15 00:14:18;;;;;;;23.75;9.32;;;1.70;99.90;;;1.38;96.23;98809.06;172410;28;1529;-76
2021/12/15 00:14:24;;;;;;;22.83;9.75;;;1.70;99.90;;;1.41;96.66;98811.50;171853;28;1664;-75
2021/12/15 00:14:32;;;;;;;21.38;10.07;;;1.70;99.90;;;1.45;96.31;98810.38;171806;28;1315;-75
2021/12/15 00:14:38;;;;;;;20.81;9.83;;;1.70;99.90;;;1.43;96.07;98811.44;172439;28;1693;-75
2021/12/15 00:14:46;;;;;;;20.38;9.50;;;1.70;99.90;;;1.35;96.47;98795.97;172434;28;1565;-75
2021/12/15 00:14:53;;;;;;;21.07;8.82;;;1.70;99.90;;;1.46;96.57;98813.88;171118;28;1138;-75
2021/12/15 00:14:59;;;;;;;20.96;8.86;;;1.70;99.90;;;1.45;96.13;98812.19;171780;28;1449;-75
2021/12/15 00:15:07;;;;;;;21.92;9.10;;;1.70;99.90;;;1.33;96.42;98786.44;171461;28;1438;-75
2021/12/15 00:15:15;;;;;;;21.98;9.17;;;1.70;99.90;;;1.43;96.52;98814.94;170483;29;983;-76
2021/12/15 00:15:23;;;;;;;20.90;9.10;;;1.70;99.90;;;1.40;96.17;98812.44;172472;28;1410;-76
2021/12/15 00:15:29;;;;;;;20.53;9.05;;;1.70;99.90;;;1.39;96.50;98805.47;173173;28;1503;-76
2021/12/15 00:15:35;;;;;;;19.90;9.05;;;1.70;99.90;;;1.38;95.85;98805.56;173190;28;934;-76
2021/12/15 00:15:44;;;;;;;20.60;9.10;;;1.70;99.90;;;1.31;96.26;98799.78;172564;28;1045;-76
2021/12/15 00:15:50;;;;;;;24.60;9.54;;;1.70;99.90;;;1.35;96.31;98806.59;173559;28;2176;-76
2021/12/15 00:15:56;;;;;;;24.25;9.77;;;1.70;99.90;;;1.35;96.70;98806.59;172421;28;1684;-76
2021/12/15 00:16:05;;;;;;;24.40;9.83;;;1.70;99.90;;;1.30;96.45;98797.25;171636;28;1781;-76
2021/12/15 00:16:13;;;;;;;24.58;9.98;;;1.70;99.90;;;1.28;96.37;98789.38;172416;28;1535;-76
2021/12/15 00:16:19;;;;;;;22.46;10.07;;;1.70;99.90;;;1.33;96.75;98803.22;172525;28;1057;-75
2021/12/15 00:16:26;;;;;;;22.85;10.10;;;1.70;99.90;;;1.26;96.47;98785.97;173153;28;1261;-75
2021/12/15 00:16:33;;;;;;;22.52;9.77;;;1.70;99.90;;;1.32;96.51;98797.97;172569;28;1046;-75
2021/12/15 00:16:40;;;;;;;22.88;10.15;;;1.70;99.90;;;1.31;96.36;98796.28;172511;28;979;-75
2021/12/15 00:16:49;;;;;;;23.08;10.04;;;1.70;99.90;;;1.31;96.38;98799.78;172546;28;892;-75
2021/12/15 00:16:56;;;;;;;23.26;9.81;;;1.70;99.90;;;1.34;96.50;98807.56;172494;28;1129;-76
2021/12/15 00:17:02;;;;;;;24.03;9.90;;;1.70;99.90;;;1.27;96.89;98795.63;170543;29;889;-76
2021/12/15 00:17:10;;;;;;;23.90;9.67;;;1.70;99.90;;;1.36;96.60;98810.94;171189;28;1267;-75
2021/12/15 00:17:16;;;;;;;23.62;9.56;;;1.70;99.90;;;1.39;96.96;98812.56;171846;28;1026;-75
2021/12/15 00:17:23;;;;;;;21.87;9.67;;;1.70;99.90;;;1.34;96.89;98804.06;172415;28;1481;-76
2021/12/15 00:17:29;;;;;;;22.54;9.70;;;1.70;99.90;;;1.29;96.71;98801.69;170498;28;1369;-76
2021/12/15 00:17:36;;;;;;;28.27;9.32;;;1.70;99.90;;;1.16;96.88;98780.41;173829;28;1503;-76
2021/12/15 00:17:42;;;;;;;32.44;9.72;;;1.60;99.90;;;1.30;96.69;98798.06;173140;28;939;-76
2021/12/15 00:17:50;;;;;;;34.00;9.53;;;1.60;99.90;;;1.03;96.32;98757.41;173579;28;1586;-75
2021/12/15 00:17:58;;;;;;;36.23;9.77;;;1.70;99.90;;;1.28;96.69;98792.03;171784;28;1444;-75
2021/12/15 00:18:04;;;;;;;35.07;10.07;;;1.70;99.90;;;1.13;96.95;98774.44;171734;28;1497;-75
2021/12/15 00:18:10;;;;;;;28.25;10.05;;;1.70;99.90;;;1.32;96.46;98801.50;173429;28;1736;-75
2021/12/15 00:18:16;;;;;;;28.30;10.27;;;1.70;99.90;;;1.22;97.13;98789.75;172548;28;880;-76
2021/12/15 00:18:22;;;;;;;27.75;10.25;;;1.60;99.90;;;1.30;96.48;98800.72;171769;28;1236;-76
2021/12/15 00:18:28;;;;;;;23.33;9.95;;;1.60;99.90;;;1.28;96.94;98798.19;171893;28;900;-76
2021/12/15 00:18:41;;;;;;;22.93;10.00;;;1.70;99.90;;;1.30;96.73;98806.03;169852;29;826;-76
2021/12/15 00:18:46;;;;;;;22.13;9.84;;;1.60;99.90;;;1.34;96.94;98810.22;171122;28;1695;-76
2021/12/15 00:18:53;;;;;;;21.40;9.52;;;1.60;99.90;;;1.14;96.44;98773.50;172192;28;1852;-76
2021/12/15 00:18:59;;;;;;;24.16;9.74;;;1.60;99.90;;;1.19;96.76;98787.31;173219;28;986;-76
2021/12/15 00:19:07;;;;;;;24.90;9.63;;;1.60;99.90;;;1.17;96.83;98781.25;171882;28;1081;-76
2021/12/15 00:19:13;;;;;;;26.10;9.77;;;1.60;99.90;;;1.30;96.86;98803.38;171874;28;1018;-76
2021/12/15 00:19:19;;;;;;;26.82;10.04;;;1.60;99.90;;;1.24;96.33;98798.50;172420;28;1467;-76
2021/12/15 00:19:27;;;;;;;27.97;10.60;;;1.60;99.90;;;1.25;96.63;98794.84;172435;28;1407;-76
2021/12/15 00:19:33;;;;;;;27.38;10.50;;;1.60;99.90;;;1.14;97.15;98776.16;172466;28;976;-75
2021/12/15 00:19:40;;;;;;;28.65;10.32;;;1.60;99.90;;;1.25;96.55;98792.22;171841;28;908;-75
2021/12/15 00:19:46;;;;;;;26.04;10.14;;;1.60;99.90;;;1.17;96.53;98786.56;171891;28;1111;-76
2021/12/15 00:19:52;;;;;;;24.13;9.55;;;1.60;99.90;;;1.32;96.51;98812.09;172219;28;1382;-76
2021/12/15 00:19:58;;;;;;;21.90;9.20;;;1.60;99.90;;;1.21;97.05;98793.34;173181;28;1798;-76
2021/12/15 00:20:14;;;;;;;21.55;9.20;;;1.60;99.90;;;1.32;96.87;98812.09;171065;28;1467;-76
2021/12/15 00:20:21;;;;;;;20.49;9.27;;;1.60;99.90;;;1.32;96.80;98806.78;172304;28;1907;-75
2021/12/15 00:20:30;;;;;;;22.27;9.23;;;1.60;99.90;;;1.15;96.67;98784.00;171928;28;1514;-75
2021/12/15 00:20:37;;;;;;;23.77;9.17;;;1.60;99.90;;;1.25;97.04;98797.50;173128;28;1280;-75
2021/12/15 00:20:43;;;;;;;24.90;9.24;;;1.60;99.90;;;1.23;96.87;98802.09;172342;28;1678;-75
2021/12/15 00:20:50;;;;;;;25.37;9.23;;;1.60;99.90;;;1.27;96.78;98808.91;173761;28;1343;-75
2021/12/15 00:20:56;;;;;;;24.80;9.22;;;1.60;99.90;;;1.25;96.80;98806.31;173241;28;1076;-75
2021/12/15 00:21:03;;;;;;;23.73;9.30;;;1.60;99.90;;;1.23;96.71;98807.38;173251;28;915;-76
2021/12/15 00:21:14;;;;;;;21.86;9.28;;;1.60;99.90;;;1.18;97.29;98789.13;171843;28;942;-76
2021/12/15 00:21:20;;;;;;;20.74;9.52;;;1.60;99.90;;;1.24;97.21;98807.28;171740;28;1305;-76
2021/12/15 00:21:27;;;;;;;22.97;10.10;;;1.60;99.90;;;1.09;97.22;98787.03;172584;28;902;-75
2021/12/15 00:21:34;;;;;;;28.27;10.47;;;1.60;99.90;;;1.18;96.83;98799.72;172583;28;1440;-75
2021/12/15 00:21:40;;;;;;;28.17;10.20;;;1.60;99.90;;;1.21;96.81;98798.66;171879;28;824;-75
2021/12/15 00:21:46;;;;;;;29.57;10.33;;;1.60;99.90;;;1.11;96.76;98792.25;172765;28;2170;-75
2021/12/15 00:21:54;;;;;;;28.08;10.07;;;1.60;99.90;;;1.22;97.01;98809.19;172716;28;1429;-75
2021/12/15 00:22:01;;;;;;;25.33;9.72;;;1.60;99.90;;;1.19;97.09;98797.94;172476;28;948;-75
2021/12/15 00:22:07;;;;;;;20.98;9.32;;;1.50;99.90;;;1.11;96.77;98793.09;171104;28;1627;-76
2021/12/15 00:22:13;;;;;;;20.80;9.30;;;1.50;99.90;;;1.20;96.67;98813.72;173840;28;1360;-76
2021/12/15 00:22:20;;;;;;;20.50;9.13;;;1.50;99.90;;;1.15;97.03;98799.03;172622;28;899;-76
2021/12/15 00:22:26;;;;;;;20.73;9.07;;;1.50;99.90;;;0.92;97.10;98757.22;173132;28;1378;-75
2021/12/15 00:22:32;;;;;;;21.75;9.02;;;1.50;99.90;;;1.14;96.93;98803.50;173061;28;1321;-75
2021/12/15 00:22:38;;;;;;;23.35;9.57;;;1.50;99.90;;;1.13;97.04;98795.66;173082;28;1303;-76
2021/12/15 00:22:45;;;;;;;23.13;9.50;;;1.50;99.90;;;1.11;96.92;98800.19;171767;28;1224;-76
2021/12/15 00:22:52;;;;;;;23.48;9.70;;;1.50;99.90;;;1.10;96.98;98793.19;171719;28;2323;-76
2021/12/15 00:22:59;;;;;;;24.80;10.06;;;1.50;99.90;;;1.08;96.71;98795.09;171812;28;1373;-76
2021/12/15 00:23:05;;;;;;;23.77;9.97;;;1.50;99.90;;;1.12;96.96;98799.25;171905;28;1054;-76
2021/12/15 00:23:11;;;;;;;24.40;9.93;;;1.50;99.90;;;1.16;97.27;98806.91;173215;28;951;-76
2021/12/15 00:23:18;;;;;;;23.27;9.83;;;1.50;99.90;;;1.19;96.78;98811.19;173924;28;1366;-76
2021/12/15 00:23:24;;;;;;;22.10;9.73;;;1.50;99.90;;;1.16;97.01;98801.59;173152;28;1472;-76
2021/12/15 00:23:30;;;;;;;22.67;9.67;;;1.50;99.90;;;1.17;97.16;98807.78;171892;28;998;-76
2021/12/15 00:23:39;;;;;;;21.93;9.37;;;1.50;99.90;;;1.02;96.96;98777.75;171784;28;1549;-76
2021/12/15 00:23:48;;;;;;;21.77;9.27;;;1.50;99.90;;;1.15;97.35;98807.84;173826;28;847;-76
2021/12/15 00:23:54;;;;;;;21.60;9.07;;;1.50;99.90;;;1.17;97.36;98805.13;172498;28;1084;-76
2021/12/15 00:24:00;;;;;;;22.70;8.67;;;1.50;99.90;;;1.16;97.37;98806.91;170634;28;1279;-76
2021/12/15 00:24:08;;;;;;;23.08;8.80;;;1.50;99.90;;;1.15;97.38;98801.69;172535;28;1474;-76
2021/12/15 00:24:14;;;;;;;24.38;9.25;;;1.50;99.90;;;1.00;97.33;98781.44;171636;28;1492;-76
2021/12/15 00:24:20;;;;;;;26.13;9.60;;;1.50;99.90;;;1.18;96.96;98804.19;171013;28;1351;-76
2021/12/15 00:24:27;;;;;;;26.00;9.77;;;1.50;99.90;;;1.07;97.38;98785.44;171859;28;1370;-76
2021/12/15 00:24:34;;;;;;;25.14;10.08;;;1.50;99.90;;;1.16;97.53;98811.38;171903;28;1043;-76
2021/12/15 00:24:40;;;;;;;25.50;10.23;;;1.50;99.90;;;1.07;97.41;98786.28;171190;28;1355;-76
2021/12/15 00:24:46;;;;;;;23.65;9.73;;;1.50;99.90;;;1.10;97.48;98809.09;171237;28;1050;-76
2021/12/15 00:24:52;;;;;;;23.15;9.52;;;1.50;99.90;;;0.91;97.32;98763.47;173228;28;824;-76
2021/12/15 00:24:57;;;;;;;22.30;9.55;;;1.50;99.90;;;1.19;97.81;98813.84;171870;28;998;-76
2021/12/15 00:25:08;;;;;;;22.77;9.60;;;1.50;99.90;;;1.17;97.87;98805.97;172497;28;832;-76
2021/12/15 00:25:14;;;;;;;24.04;9.64;;;1.40;99.90;;;1.14;97.60;98797.38;171844;28;2612;-76
2021/12/15 00:25:27;;;;;;;24.42;9.82;;;1.50;99.90;;;1.14;98.01;98797.38;171844;28;1049;-76
2021/12/15 00:25:39;;;;;;;24.46;9.85;;;1.50;99.90;;;1.11;97.73;98800.19;171655;28;1339;-76
2021/12/15 00:25:46;;;;;;;21.49;9.50;;;1.50;99.90;;;0.85;97.97;98749.66;173130;28;1443;-75
2021/12/15 00:25:52;;;;;;;22.23;9.20;;;1.50;99.90;;;1.15;97.79;98809.66;171843;28;1433;-75
2021/12/15 00:25:58;;;;;;;21.83;9.02;;;1.50;99.90;;;1.06;97.98;98794.31;171877;28;927;-75
2021/12/15 00:26:04;;;;;;;20.52;8.80;;;1.50;99.90;;;1.13;97.65;98798.31;172473;28;1309;-75
2021/12/15 00:26:11;;;;;;;20.07;8.80;;;1.50;99.90;;;1.07;98.22;98790.72;172395;28;1419;-75
2021/12/15 00:26:19;;;;;;;20.74;9.06;;;1.50;99.90;;;1.03;98.23;98790.09;172574;28;907;-76
2021/12/15 00:26:25;;;;;;;20.57;9.32;;;1.50;99.90;;;1.15;97.85;98809.66;172439;28;1415;-76
2021/12/15 00:26:31;;;;;;;22.37;9.40;;;1.50;99.90;;;1.10;97.88;98802.00;172588;28;852;-76
2021/12/15 00:26:38;;;;;;;25.50;9.73;;;1.50;99.90;;;1.17;97.76;98813.06;172119;28;1698;-76
2021/12/15 00:26:44;;;;;;;27.02;10.02;;;1.50;99.90;;;0.93;97.79;98765.09;171661;28;1133;-76
2021/12/15 00:26:51;;;;;;;25.73;9.80;;;1.50;99.90;;;1.18;97.67;98804.19;171719;28;1473;-75
2021/12/15 00:26:57;;;;;;;25.22;9.38;;;1.50;99.90;;;1.15;97.74;98805.22;171979;28;1809;-75
2021/12/15 00:27:05;;;;;;;24.17;9.50;;;1.50;99.90;;;1.13;97.59;98796.50;171816;28;1541;-75
2021/12/15 00:27:11;;;;;;;22.93;9.50;;;1.50;99.90;;;1.04;98.04;98780.31;171882;28;969;-75
2021/12/15 00:27:17;;;;;;;22.58;9.35;;;1.40;99.90;;;1.09;97.94;98789.66;170516;29;892;-76
2021/12/15 00:27:24;;;;;;;24.73;9.38;;;1.50;99.90;;;1.18;98.10;98815.63;171680;28;1316;-76
2021/12/15 00:27:30;;;;;;;23.62;9.18;;;1.50;99.90;;;1.13;97.70;98799.16;171898;28;1114;-76
2021/12/15 00:27:37;;;;;;;23.23;9.05;;;1.50;99.90;;;1.08;97.84;98792.44;171898;28;900;-76
2021/12/15 00:27:43;;;;;;;21.77;8.73;;;1.50;99.90;;;1.13;97.55;98800.97;170553;28;1476;-76
2021/12/15 00:27:50;;;;;;;20.02;8.60;;;1.40;99.90;;;1.14;97.64;98805.31;172197;28;1929;-75
2021/12/15 00:27:56;;;;;;;18.38;8.68;;;1.50;99.90;;;1.03;97.16;98786.56;171922;28;1599;-75
2021/12/15 00:28:03;;;;;;;19.20;8.88;;;1.40;99.90;;;1.12;97.30;98801.91;172484;28;974;-75
2021/12/15 00:28:10;;;;;;;19.72;9.10;;;1.50;99.90;;;1.14;96.96;98800.03;171762;28;1596;-75
2021/12/15 00:28:17;;;;;;;21.90;9.92;;;1.40;99.90;;;1.13;96.97;98803.63;173831;28;1349;-75
2021/12/15 00:28:23;;;;;;;21.03;9.70;;;1.40;99.90;;;1.08;97.15;98797.75;173144;28;1261;-75
2021/12/15 00:28:30;;;;;;;21.35;9.70;;;1.40;99.90;;;1.16;96.81;98803.41;173566;28;1485;-76
2021/12/15 00:28:36;;;;;;;23.00;9.83;;;1.50;99.90;;;1.05;96.86;98784.66;173048;28;1438;-76
2021/12/15 00:28:45;;;;;;;22.80;9.40;;;1.50;99.90;;;1.11;97.35;98798.41;171726;28;1479;-77
2021/12/15 00:28:52;;;;;;;26.07;9.73;;;1.40;99.90;;;1.11;97.13;98795.75;171233;28;841;-76
2021/12/15 00:28:58;;;;;;;26.40;9.72;;;1.50;99.90;;;1.05;96.81;98789.97;173079;28;1776;-75
2021/12/15 00:29:07;;;;;;;25.00;9.47;;;1.50;99.90;;;1.07;97.14;98786.28;171828;28;1636;-75
2021/12/15 00:29:13;;;;;;;26.83;9.47;;;1.40;99.90;;;1.11;96.89;98797.53;172436;28;932;-75
2021/12/15 00:29:19;;;;;;;23.88;9.35;;;1.50;99.90;;;1.07;97.35;98788.94;171168;28;1231;-75
2021/12/15 00:29:25;;;;;;;22.80;9.18;;;1.40;99.90;;;1.18;97.26;98810.34;171815;28;1216;-75
2021/12/15 00:29:31;;;;;;;21.58;9.35;;;1.40;99.90;;;1.00;96.72;98770.84;172410;28;1426;-76
2021/12/15 00:29:37;;;;;;;25.33;9.50;;;1.40;99.90;;;1.12;97.44;98799.25;173197;28;1328;-75
2021/12/15 00:29:43;;;;;;;23.17;9.38;;;1.40;99.90;;;1.15;97.00;98801.69;172349;28;1352;-75
2021/12/15 00:29:49;;;;;;;23.48;9.32;;;1.40;99.90;;;1.13;97.11;98795.66;172481;28;1486;-75
2021/12/15 00:29:55;;;;;;;23.77;9.20;;;1.40;99.90;;;1.09;97.38;98792.31;172183;28;1455;-76
2021/12/15 00:30:02;;;;;;;24.60;9.00;;;1.40;99.90;;;1.09;97.35;98794.16;173894;28;1338;-76
2021/12/15 00:30:10;;;;;;;21.80;8.97;;;1.40;99.90;;;1.08;97.27;98797.75;172642;28;1372;-76
2021/12/15 00:30:18;;;;;;;21.58;8.96;;;1.40;99.90;;;1.10;97.18;98796.69;172443;28;1391;-76
2021/12/15 00:30:25;;;;;;;21.80;9.43;;;1.40;99.90;;;1.08;97.30;98790.66;173232;28;843;-76
2021/12/15 00:30:31;;;;;;;21.13;9.47;;;1.40;99.90;;;1.07;97.21;98791.59;173223;28;1046;-75
2021/12/15 00:30:38;;;;;;;20.17;9.20;;;1.40;99.90;;;1.02;97.35;98788.38;172568;28;863;-75
2021/12/15 00:30:45;;;;;;;19.83;9.03;;;1.40;99.90;;;1.06;97.48;98797.84;171248;28;947;-75
2021/12/15 00:30:51;;;;;;;21.30;8.97;;;1.40;99.90;;;1.10;97.04;98804.63;171988;28;935;-76
2021/12/15 00:30:57;;;;;;;20.65;8.93;;;1.40;99.90;;;1.11;97.10;98806.34;173155;28;1650;-76
2021/12/15 00:31:05;;;;;;;21.20;8.88;;;1.40;99.90;;;1.06;97.28;98794.31;173254;28;903;-76
2021/12/15 00:31:12;;;;;;;23.02;9.12;;;1.40;99.90;;;1.14;97.50;98807.97;171858;28;950;-75
2021/12/15 00:31:20;;;;;;;22.03;8.73;;;1.40;99.90;;;1.10;97.71;98801.13;171916;28;879;-75
2021/12/15 00:31:28;;;;;;;21.72;8.58;;;1.40;99.90;;;1.12;97.59;98804.56;171072;28;1566;-75
2021/12/15 00:31:37;;;;;;;21.07;8.57;;;1.40;99.90;;;1.11;97.30;98802.84;171894;28;888;-76
2021/12/15 00:31:46;;;;;;;21.86;8.20;;;1.40;99.90;;;1.08;97.59;98801.25;172374;28;2821;-76